sensor_id;sensor_type;location;lat;lon;timestamp;P1;durP1;ratioP1;P2;durP2;ratioP2
71435;SDS011;59251;51.326;12.370;2022-08-01T00:02:02;7.03;;;3.40;;
71435;SDS011;59251;51.326;12.370;2022-08-01T00:04:27;8.37;;;3.30;;
71435;SDS011;59251;51.326;12.370;2022-08-01T00:06:52;6.97;;;3.27;;
71435;SDS011;59251;51.326;12.370;2022-08-01T00:09:18;8.33;;;3.67;;
71435;SDS011;59251;51.326;12.370;2022-08-01T00:11:43;7.43;;;3.50;;
71435;SDS011;59251;51.326;12.370;2022-08-01T00:14:08;7.47;;;3.30;;
71435;SDS011;59251;51.326;12.370;2022-08-01T00:16:34;6.88;;;3.42;;
71435;SDS011;59251;51.326;12.370;2022-08-01T00:19:00;7.47;;;3.20;;
71435;SDS011;59251;51.326;12.370;2022-08-01T00:21:26;6.90;;;3.40;;
71435;SDS011;59251;51.326;12.370;2022-08-01T00:23:51;7.97;;;3.67;;
71435;SDS011;59251;51.326;12.370;2022-08-01T00:26:17;8.57;;;3.30;;
71435;SDS011;59251;51.326;12.370;2022-08-01T00:28:43;7.65;;;3.08;;
71435;SDS011;59251;51.326;12.370;2022-08-01T00:31:08;6.73;;;3.10;;
71435;SDS011;59251;51.326;12.370;2022-08-01T00:33:34;6.33;;;3.13;;
71435;SDS011;59251;51.326;12.370;2022-08-01T00:35:59;7.22;;;3.17;;
71435;SDS011;59251;51.326;12.370;2022-08-01T00:38:24;8.77;;;3.30;;
71435;SDS011;59251;51.326;12.370;2022-08-01T00:40:50;7.67;;;3.23;;
71435;SDS011;59251;51.326;12.370;2022-08-01T00:43:15;7.87;;;3.50;;
71435;SDS011;59251;51.326;12.370;2022-08-01T00:45:41;7.72;;;3.70;;
71435;SDS011;59251;51.326;12.370;2022-08-01T00:48:07;7.97;;;3.60;;
71435;SDS011;59251;51.326;12.370;2022-08-01T00:50:32;7.00;;;3.60;;
71435;SDS011;59251;51.326;12.370;2022-08-01T00:52:58;7.07;;;3.40;;
71435;SDS011;59251;51.326;12.370;2022-08-01T00:55:25;6.03;;;3.15;;
71435;SDS011;59251;51.326;12.370;2022-08-01T00:57:55;8.80;;;3.30;;
71435;SDS011;59251;51.326;12.370;2022-08-01T01:00:22;9.77;;;3.88;;
71435;SDS011;59251;51.326;12.370;2022-08-01T01:02:48;7.93;;;3.40;;
71435;SDS011;59251;51.326;12.370;2022-08-01T01:05:13;7.00;;;3.47;;
71435;SDS011;59251;51.326;12.370;2022-08-01T01:10:46;8.63;;;3.70;;
71435;SDS011;59251;51.326;12.370;2022-08-01T01:13:23;8.85;;;3.65;;
71435;SDS011;59251;51.326;12.370;2022-08-01T01:16:06;7.32;;;4.03;;
71435;SDS011;59251;51.326;12.370;2022-08-01T01:18:39;8.90;;;4.00;;
71435;SDS011;59251;51.326;12.370;2022-08-01T01:21:24;10.48;;;3.90;;
71435;SDS011;59251;51.326;12.370;2022-08-01T01:27:00;8.07;;;3.85;;
71435;SDS011;59251;51.326;12.370;2022-08-01T01:34:48;8.40;;;3.60;;
71435;SDS011;59251;51.326;12.370;2022-08-01T01:37:19;7.13;;;3.67;;
71435;SDS011;59251;51.326;12.370;2022-08-01T01:39:47;6.82;;;3.40;;
71435;SDS011;59251;51.326;12.370;2022-08-01T01:42:15;8.70;;;3.80;;
71435;SDS011;59251;51.326;12.370;2022-08-01T01:44:42;7.10;;;3.42;;
71435;SDS011;59251;51.326;12.370;2022-08-01T01:47:09;7.40;;;3.40;;
71435;SDS011;59251;51.326;12.370;2022-08-01T01:49:37;6.60;;;3.33;;
71435;SDS011;59251;51.326;12.370;2022-08-01T01:52:06;7.55;;;3.10;;
71435;SDS011;59251;51.326;12.370;2022-08-01T01:54:33;7.65;;;3.30;;
71435;SDS011;59251;51.326;12.370;2022-08-01T01:57:02;8.43;;;3.53;;
71435;SDS011;59251;51.326;12.370;2022-08-01T01:59:29;7.25;;;3.38;;
71435;SDS011;59251;51.326;12.370;2022-08-01T02:01:57;7.13;;;3.20;;
71435;SDS011;59251;51.326;12.370;2022-08-01T02:04:24;7.95;;;3.35;;
71435;SDS011;59251;51.326;12.370;2022-08-01T02:06:52;7.10;;;3.45;;
71435;SDS011;59251;51.326;12.370;2022-08-01T02:09:19;6.65;;;3.47;;
71435;SDS011;59251;51.326;12.370;2022-08-01T02:11:46;7.72;;;3.33;;
71435;SDS011;59251;51.326;12.370;2022-08-01T02:14:13;9.03;;;3.53;;
71435;SDS011;59251;51.326;12.370;2022-08-01T02:16:40;7.32;;;3.10;;
71435;SDS011;59251;51.326;12.370;2022-08-01T02:19:08;6.45;;;3.30;;
71435;SDS011;59251;51.326;12.370;2022-08-01T02:21:44;7.20;;;3.17;;
71435;SDS011;59251;51.326;12.370;2022-08-01T02:26:47;7.87;;;3.50;;
71435;SDS011;59251;51.326;12.370;2022-08-01T02:29:17;8.18;;;3.15;;
71435;SDS011;59251;51.326;12.370;2022-08-01T02:31:53;8.57;;;3.25;;
71435;SDS011;59251;51.326;12.370;2022-08-01T02:34:19;7.18;;;3.25;;
71435;SDS011;59251;51.326;12.370;2022-08-01T02:36:47;6.20;;;3.08;;
71435;SDS011;59251;51.326;12.370;2022-08-01T02:39:14;6.97;;;3.27;;
71435;SDS011;59251;51.326;12.370;2022-08-01T02:41:43;7.00;;;3.40;;
71435;SDS011;59251;51.326;12.370;2022-08-01T02:44:14;6.80;;;3.13;;
71435;SDS011;59251;51.326;12.370;2022-08-01T02:46:49;6.57;;;3.38;;
71435;SDS011;59251;51.326;12.370;2022-08-01T02:49:27;9.32;;;3.67;;
71435;SDS011;59251;51.326;12.370;2022-08-01T02:51:57;9.00;;;4.20;;
71435;SDS011;59251;51.326;12.370;2022-08-01T02:54:26;8.70;;;3.10;;
71435;SDS011;59251;51.326;12.370;2022-08-01T02:56:52;6.82;;;2.90;;
71435;SDS011;59251;51.326;12.370;2022-08-01T02:59:20;6.80;;;3.00;;
71435;SDS011;59251;51.326;12.370;2022-08-01T03:01:50;6.95;;;3.13;;
71435;SDS011;59251;51.326;12.370;2022-08-01T03:04:19;8.13;;;2.90;;
71435;SDS011;59251;51.326;12.370;2022-08-01T03:06:47;7.00;;;2.67;;
71435;SDS011;59251;51.326;12.370;2022-08-01T03:09:13;8.40;;;3.00;;
71435;SDS011;59251;51.326;12.370;2022-08-01T03:11:40;6.80;;;2.13;;
71435;SDS011;59251;51.326;12.370;2022-08-01T03:14:07;6.40;;;2.42;;
71435;SDS011;59251;51.326;12.370;2022-08-01T03:16:35;6.37;;;2.23;;
71435;SDS011;59251;51.326;12.370;2022-08-01T03:19:03;8.27;;;2.60;;
71435;SDS011;59251;51.326;12.370;2022-08-01T03:21:30;5.80;;;2.50;;
71435;SDS011;59251;51.326;12.370;2022-08-01T03:23:58;6.65;;;2.55;;
71435;SDS011;59251;51.326;12.370;2022-08-01T03:26:27;7.05;;;2.63;;
71435;SDS011;59251;51.326;12.370;2022-08-01T03:28:59;7.13;;;2.73;;
71435;SDS011;59251;51.326;12.370;2022-08-01T03:31:31;6.60;;;2.63;;
71435;SDS011;59251;51.326;12.370;2022-08-01T03:34:00;6.03;;;2.47;;
71435;SDS011;59251;51.326;12.370;2022-08-01T03:36:25;6.10;;;2.50;;
71435;SDS011;59251;51.326;12.370;2022-08-01T03:38:55;11.60;;;2.55;;
71435;SDS011;59251;51.326;12.370;2022-08-01T03:41:23;6.43;;;2.90;;
71435;SDS011;59251;51.326;12.370;2022-08-01T03:43:52;7.05;;;2.75;;
71435;SDS011;59251;51.326;12.370;2022-08-01T03:46:24;7.57;;;2.53;;
71435;SDS011;59251;51.326;12.370;2022-08-01T03:48:55;7.50;;;2.90;;
71435;SDS011;59251;51.326;12.370;2022-08-01T03:51:25;6.68;;;2.72;;
71435;SDS011;59251;51.326;12.370;2022-08-01T03:53:51;6.82;;;2.72;;
71435;SDS011;59251;51.326;12.370;2022-08-01T03:56:20;6.72;;;2.97;;
71435;SDS011;59251;51.326;12.370;2022-08-01T03:58:47;7.03;;;2.60;;
71435;SDS011;59251;51.326;12.370;2022-08-01T04:01:14;6.17;;;2.43;;
71435;SDS011;59251;51.326;12.370;2022-08-01T04:03:40;7.18;;;2.72;;
71435;SDS011;59251;51.326;12.370;2022-08-01T04:06:06;7.65;;;3.17;;
71435;SDS011;59251;51.326;12.370;2022-08-01T04:08:35;9.13;;;3.17;;
71435;SDS011;59251;51.326;12.370;2022-08-01T04:11:02;7.40;;;3.70;;
71435;SDS011;59251;51.326;12.370;2022-08-01T04:13:27;7.13;;;3.30;;
71435;SDS011;59251;51.326;12.370;2022-08-01T04:15:52;8.53;;;4.00;;
71435;SDS011;59251;51.326;12.370;2022-08-01T04:18:18;8.53;;;3.67;;
71435;SDS011;59251;51.326;12.370;2022-08-01T04:20:43;7.47;;;3.90;;
71435;SDS011;59251;51.326;12.370;2022-08-01T04:23:11;7.63;;;4.10;;
71435;SDS011;59251;51.326;12.370;2022-08-01T04:25:38;7.20;;;3.50;;
71435;SDS011;59251;51.326;12.370;2022-08-01T04:28:07;9.63;;;4.00;;
71435;SDS011;59251;51.326;12.370;2022-08-01T04:30:41;7.75;;;3.90;;
71435;SDS011;59251;51.326;12.370;2022-08-01T04:33:08;7.40;;;3.90;;
71435;SDS011;59251;51.326;12.370;2022-08-01T04:35:36;8.00;;;3.97;;
71435;SDS011;59251;51.326;12.370;2022-08-01T04:38:06;7.47;;;3.70;;
71435;SDS011;59251;51.326;12.370;2022-08-01T04:40:34;8.55;;;3.70;;
71435;SDS011;59251;51.326;12.370;2022-08-01T04:43:01;6.80;;;3.60;;
71435;SDS011;59251;51.326;12.370;2022-08-01T04:45:26;7.43;;;3.87;;
71435;SDS011;59251;51.326;12.370;2022-08-01T04:47:52;8.63;;;4.32;;
71435;SDS011;59251;51.326;12.370;2022-08-01T04:50:18;9.43;;;4.13;;
71435;SDS011;59251;51.326;12.370;2022-08-01T04:52:46;6.80;;;3.40;;
71435;SDS011;59251;51.326;12.370;2022-08-01T04:55:12;7.17;;;3.00;;
71435;SDS011;59251;51.326;12.370;2022-08-01T04:57:39;5.70;;;2.40;;
71435;SDS011;59251;51.326;12.370;2022-08-01T05:00:08;6.10;;;2.20;;
71435;SDS011;59251;51.326;12.370;2022-08-01T05:02:34;8.43;;;2.70;;
71435;SDS011;59251;51.326;12.370;2022-08-01T05:04:59;6.63;;;2.40;;
71435;SDS011;59251;51.326;12.370;2022-08-01T05:07:25;6.20;;;2.67;;
71435;SDS011;59251;51.326;12.370;2022-08-01T05:09:50;6.17;;;2.67;;
71435;SDS011;59251;51.326;12.370;2022-08-01T05:12:16;6.75;;;2.47;;
71435;SDS011;59251;51.326;12.370;2022-08-01T05:14:42;5.57;;;2.13;;
71435;SDS011;59251;51.326;12.370;2022-08-01T05:17:07;6.85;;;2.55;;
71435;SDS011;59251;51.326;12.370;2022-08-01T05:19:34;6.88;;;2.33;;
71435;SDS011;59251;51.326;12.370;2022-08-01T05:22:02;6.57;;;2.47;;
71435;SDS011;59251;51.326;12.370;2022-08-01T05:24:32;6.05;;;2.50;;
71435;SDS011;59251;51.326;12.370;2022-08-01T05:26:59;5.82;;;2.45;;
71435;SDS011;59251;51.326;12.370;2022-08-01T05:29:25;5.77;;;2.30;;
71435;SDS011;59251;51.326;12.370;2022-08-01T05:31:51;6.75;;;2.45;;
71435;SDS011;59251;51.326;12.370;2022-08-01T05:34:17;7.47;;;2.50;;
71435;SDS011;59251;51.326;12.370;2022-08-01T05:36:42;7.10;;;2.22;;
71435;SDS011;59251;51.326;12.370;2022-08-01T05:39:08;5.70;;;2.30;;
71435;SDS011;59251;51.326;12.370;2022-08-01T05:41:35;6.88;;;2.40;;
71435;SDS011;59251;51.326;12.370;2022-08-01T05:44:01;6.20;;;2.30;;
71435;SDS011;59251;51.326;12.370;2022-08-01T05:46:26;6.13;;;2.10;;
71435;SDS011;59251;51.326;12.370;2022-08-01T05:48:52;7.03;;;2.60;;
71435;SDS011;59251;51.326;12.370;2022-08-01T05:51:17;7.17;;;2.23;;
71435;SDS011;59251;51.326;12.370;2022-08-01T05:53:42;6.37;;;2.00;;
71435;SDS011;59251;51.326;12.370;2022-08-01T05:56:09;6.60;;;2.22;;
71435;SDS011;59251;51.326;12.370;2022-08-01T05:58:34;6.72;;;2.30;;
71435;SDS011;59251;51.326;12.370;2022-08-01T06:01:00;5.70;;;2.37;;
71435;SDS011;59251;51.326;12.370;2022-08-01T06:03:26;5.50;;;2.07;;
71435;SDS011;59251;51.326;12.370;2022-08-01T06:05:51;5.95;;;2.40;;
71435;SDS011;59251;51.326;12.370;2022-08-01T06:08:18;8.10;;;2.87;;
71435;SDS011;59251;51.326;12.370;2022-08-01T06:10:43;8.25;;;3.50;;
71435;SDS011;59251;51.326;12.370;2022-08-01T06:13:08;6.70;;;3.00;;
71435;SDS011;59251;51.326;12.370;2022-08-01T06:15:34;6.40;;;2.73;;
71435;SDS011;59251;51.326;12.370;2022-08-01T06:17:59;6.10;;;2.75;;
71435;SDS011;59251;51.326;12.370;2022-08-01T06:20:25;7.27;;;2.90;;
71435;SDS011;59251;51.326;12.370;2022-08-01T06:22:51;6.83;;;2.00;;
71435;SDS011;59251;51.326;12.370;2022-08-01T06:25:19;6.65;;;2.30;;
71435;SDS011;59251;51.326;12.370;2022-08-01T06:27:45;5.90;;;1.93;;
71435;SDS011;59251;51.326;12.370;2022-08-01T06:30:10;5.50;;;2.10;;
71435;SDS011;59251;51.326;12.370;2022-08-01T06:32:36;5.93;;;2.07;;
71435;SDS011;59251;51.326;12.370;2022-08-01T06:35:01;6.00;;;2.33;;
71435;SDS011;59251;51.326;12.370;2022-08-01T06:37:31;6.33;;;2.23;;
71435;SDS011;59251;51.326;12.370;2022-08-01T06:40:04;5.47;;;1.95;;
71435;SDS011;59251;51.326;12.370;2022-08-01T06:42:31;6.03;;;2.45;;
71435;SDS011;59251;51.326;12.370;2022-08-01T06:45:01;5.43;;;2.10;;
71435;SDS011;59251;51.326;12.370;2022-08-01T06:47:30;6.22;;;2.22;;
71435;SDS011;59251;51.326;12.370;2022-08-01T06:49:55;5.70;;;1.65;;
71435;SDS011;59251;51.326;12.370;2022-08-01T06:52:21;5.50;;;1.70;;
71435;SDS011;59251;51.326;12.370;2022-08-01T06:54:46;6.27;;;1.80;;
71435;SDS011;59251;51.326;12.370;2022-08-01T06:57:12;6.73;;;2.00;;
71435;SDS011;59251;51.326;12.370;2022-08-01T06:59:37;5.50;;;1.50;;
71435;SDS011;59251;51.326;12.370;2022-08-01T07:02:03;4.90;;;1.53;;
71435;SDS011;59251;51.326;12.370;2022-08-01T07:04:28;5.10;;;1.80;;
71435;SDS011;59251;51.326;12.370;2022-08-01T07:06:54;4.97;;;1.60;;
71435;SDS011;59251;51.326;12.370;2022-08-01T07:09:19;5.83;;;1.70;;
71435;SDS011;59251;51.326;12.370;2022-08-01T07:11:45;5.93;;;1.90;;
71435;SDS011;59251;51.326;12.370;2022-08-01T07:14:10;6.43;;;1.83;;
71435;SDS011;59251;51.326;12.370;2022-08-01T07:16:35;5.73;;;1.50;;
71435;SDS011;59251;51.326;12.370;2022-08-01T07:19:01;5.33;;;1.73;;
71435;SDS011;59251;51.326;12.370;2022-08-01T07:21:26;6.47;;;2.00;;
71435;SDS011;59251;51.326;12.370;2022-08-01T07:23:52;5.63;;;1.40;;
71435;SDS011;59251;51.326;12.370;2022-08-01T07:26:17;6.60;;;1.40;;
71435;SDS011;59251;51.326;12.370;2022-08-01T07:28:42;4.83;;;1.30;;
71435;SDS011;59251;51.326;12.370;2022-08-01T07:31:08;4.57;;;1.20;;
71435;SDS011;59251;51.326;12.370;2022-08-01T07:33:33;4.63;;;1.00;;
71435;SDS011;59251;51.326;12.370;2022-08-01T07:36:00;4.88;;;1.20;;
71435;SDS011;59251;51.326;12.370;2022-08-01T07:38:25;5.53;;;1.20;;
71435;SDS011;59251;51.326;12.370;2022-08-01T07:40:51;4.30;;;0.97;;
71435;SDS011;59251;51.326;12.370;2022-08-01T07:43:16;4.20;;;1.00;;
71435;SDS011;59251;51.326;12.370;2022-08-01T07:45:41;5.70;;;1.50;;
71435;SDS011;59251;51.326;12.370;2022-08-01T07:48:07;4.63;;;1.00;;
71435;SDS011;59251;51.326;12.370;2022-08-01T07:50:32;4.60;;;1.00;;
71435;SDS011;59251;51.326;12.370;2022-08-01T07:52:58;6.82;;;0.93;;
71435;SDS011;59251;51.326;12.370;2022-08-01T07:55:25;5.07;;;0.90;;
71435;SDS011;59251;51.326;12.370;2022-08-01T07:57:51;4.00;;;0.65;;
71435;SDS011;59251;51.326;12.370;2022-08-01T08:00:16;4.03;;;0.90;;
71435;SDS011;59251;51.326;12.370;2022-08-01T08:02:43;4.40;;;0.90;;
71435;SDS011;59251;51.326;12.370;2022-08-01T08:05:09;4.45;;;0.80;;
71435;SDS011;59251;51.326;12.370;2022-08-01T08:07:34;5.23;;;0.77;;
71435;SDS011;59251;51.326;12.370;2022-08-01T08:09:59;5.00;;;0.80;;
71435;SDS011;59251;51.326;12.370;2022-08-01T08:12:25;3.95;;;0.75;;
71435;SDS011;59251;51.326;12.370;2022-08-01T08:14:51;4.10;;;0.80;;
71435;SDS011;59251;51.326;12.370;2022-08-01T08:17:16;4.40;;;0.80;;
71435;SDS011;59251;51.326;12.370;2022-08-01T08:19:41;4.53;;;0.75;;
71435;SDS011;59251;51.326;12.370;2022-08-01T08:22:07;5.20;;;0.90;;
71435;SDS011;59251;51.326;12.370;2022-08-01T08:24:33;5.22;;;0.82;;
71435;SDS011;59251;51.326;12.370;2022-08-01T08:26:59;5.30;;;0.83;;
71435;SDS011;59251;51.326;12.370;2022-08-01T08:29:26;4.47;;;0.82;;
71435;SDS011;59251;51.326;12.370;2022-08-01T08:31:54;4.90;;;0.82;;
71435;SDS011;59251;51.326;12.370;2022-08-01T08:34:20;4.03;;;0.80;;
71435;SDS011;59251;51.326;12.370;2022-08-01T08:36:46;4.50;;;0.87;;
71435;SDS011;59251;51.326;12.370;2022-08-01T08:39:11;5.25;;;0.85;;
71435;SDS011;59251;51.326;12.370;2022-08-01T08:41:37;4.50;;;0.90;;
71435;SDS011;59251;51.326;12.370;2022-08-01T08:44:03;3.87;;;0.80;;
71435;SDS011;59251;51.326;12.370;2022-08-01T08:46:30;3.67;;;0.65;;
71435;SDS011;59251;51.326;12.370;2022-08-01T08:49:00;4.35;;;0.90;;
71435;SDS011;59251;51.326;12.370;2022-08-01T08:51:27;6.43;;;0.80;;
71435;SDS011;59251;51.326;12.370;2022-08-01T08:53:55;4.20;;;0.80;;
71435;SDS011;59251;51.326;12.370;2022-08-01T08:56:22;4.03;;;0.67;;
71435;SDS011;59251;51.326;12.370;2022-08-01T08:58:49;3.97;;;0.70;;
71435;SDS011;59251;51.326;12.370;2022-08-01T09:01:16;4.25;;;0.98;;
71435;SDS011;59251;51.326;12.370;2022-08-01T09:03:42;6.45;;;0.98;;
71435;SDS011;59251;51.326;12.370;2022-08-01T09:06:08;4.00;;;0.80;;
71435;SDS011;59251;51.326;12.370;2022-08-01T09:08:34;4.77;;;1.00;;
71435;SDS011;59251;51.326;12.370;2022-08-01T09:11:00;3.85;;;0.70;;
71435;SDS011;59251;51.326;12.370;2022-08-01T09:13:26;4.72;;;0.90;;
71435;SDS011;59251;51.326;12.370;2022-08-01T09:15:52;4.27;;;0.90;;
71435;SDS011;59251;51.326;12.370;2022-08-01T09:23:42;4.83;;;0.97;;
71435;SDS011;59251;51.326;12.370;2022-08-01T09:26:15;4.32;;;0.70;;
71435;SDS011;59251;51.326;12.370;2022-08-01T09:28:42;3.63;;;0.52;;
71435;SDS011;59251;51.326;12.370;2022-08-01T09:31:10;3.75;;;0.30;;
71435;SDS011;59251;51.326;12.370;2022-08-01T09:33:51;2.78;;;0.40;;
71435;SDS011;59251;51.326;12.370;2022-08-01T09:36:19;3.30;;;0.40;;
71435;SDS011;59251;51.326;12.370;2022-08-01T09:38:49;3.05;;;0.47;;
71435;SDS011;59251;51.326;12.370;2022-08-01T09:41:16;3.35;;;0.52;;
71435;SDS011;59251;51.326;12.370;2022-08-01T09:43:47;4.60;;;0.60;;
71435;SDS011;59251;51.326;12.370;2022-08-01T09:46:15;3.90;;;0.50;;
71435;SDS011;59251;51.326;12.370;2022-08-01T09:48:59;2.83;;;0.40;;
71435;SDS011;59251;51.326;12.370;2022-08-01T09:51:36;3.28;;;0.50;;
71435;SDS011;59251;51.326;12.370;2022-08-01T09:54:04;3.20;;;0.40;;
71435;SDS011;59251;51.326;12.370;2022-08-01T09:56:40;3.53;;;0.65;;
71435;SDS011;59251;51.326;12.370;2022-08-01T09:59:10;3.57;;;0.60;;
71435;SDS011;59251;51.326;12.370;2022-08-01T10:01:54;4.55;;;0.90;;
71435;SDS011;59251;51.326;12.370;2022-08-01T10:04:21;3.35;;;0.60;;
71435;SDS011;59251;51.326;12.370;2022-08-01T10:06:48;3.35;;;0.55;;
71435;SDS011;59251;51.326;12.370;2022-08-01T10:09:26;3.53;;;0.60;;
71435;SDS011;59251;51.326;12.370;2022-08-01T10:11:53;3.97;;;0.60;;
71435;SDS011;59251;51.326;12.370;2022-08-01T10:14:20;4.20;;;0.70;;
71435;SDS011;59251;51.326;12.370;2022-08-01T10:16:47;4.90;;;0.80;;
71435;SDS011;59251;51.326;12.370;2022-08-01T10:19:13;4.60;;;0.80;;
71435;SDS011;59251;51.326;12.370;2022-08-01T10:21:39;3.70;;;0.60;;
71435;SDS011;59251;51.326;12.370;2022-08-01T10:24:04;3.80;;;0.68;;
71435;SDS011;59251;51.326;12.370;2022-08-01T10:26:32;3.30;;;0.50;;
71435;SDS011;59251;51.326;12.370;2022-08-01T10:28:59;3.60;;;0.55;;
71435;SDS011;59251;51.326;12.370;2022-08-01T10:31:25;3.90;;;0.60;;
71435;SDS011;59251;51.326;12.370;2022-08-01T10:33:52;4.30;;;0.90;;
71435;SDS011;59251;51.326;12.370;2022-08-01T10:36:22;4.20;;;0.90;;
71435;SDS011;59251;51.326;12.370;2022-08-01T10:38:48;4.10;;;0.88;;
71435;SDS011;59251;51.326;12.370;2022-08-01T10:41:15;3.80;;;0.70;;
71435;SDS011;59251;51.326;12.370;2022-08-01T10:43:43;4.53;;;0.80;;
71435;SDS011;59251;51.326;12.370;2022-08-01T10:46:08;4.10;;;0.93;;
71435;SDS011;59251;51.326;12.370;2022-08-01T10:48:38;4.57;;;0.80;;
71435;SDS011;59251;51.326;12.370;2022-08-01T10:51:12;4.30;;;0.90;;
71435;SDS011;59251;51.326;12.370;2022-08-01T10:53:45;4.30;;;1.10;;
71435;SDS011;59251;51.326;12.370;2022-08-01T10:56:12;4.20;;;1.00;;
71435;SDS011;59251;51.326;12.370;2022-08-01T10:58:38;4.87;;;1.10;;
71435;SDS011;59251;51.326;12.370;2022-08-01T11:14:20;4.53;;;1.40;;
71435;SDS011;59251;51.326;12.370;2022-08-01T11:16:46;5.20;;;1.40;;
71435;SDS011;59251;51.326;12.370;2022-08-01T11:19:11;5.10;;;1.50;;
71435;SDS011;59251;51.326;12.370;2022-08-01T11:27:19;5.80;;;1.20;;
71435;SDS011;59251;51.326;12.370;2022-08-01T11:32:48;4.00;;;0.80;;
71435;SDS011;59251;51.326;12.370;2022-08-01T11:35:18;4.10;;;0.90;;
71435;SDS011;59251;51.326;12.370;2022-08-01T11:37:46;4.30;;;1.00;;
71435;SDS011;59251;51.326;12.370;2022-08-01T11:45:51;3.95;;;0.80;;
71435;SDS011;59251;51.326;12.370;2022-08-01T11:48:20;4.30;;;1.00;;
71435;SDS011;59251;51.326;12.370;2022-08-01T11:50:48;4.60;;;1.10;;
71435;SDS011;59251;51.326;12.370;2022-08-01T11:53:16;5.50;;;1.00;;
71435;SDS011;59251;51.326;12.370;2022-08-01T11:55:46;4.60;;;1.13;;
71435;SDS011;59251;51.326;12.370;2022-08-01T11:58:21;4.82;;;1.52;;
71435;SDS011;59251;51.326;12.370;2022-08-01T12:00:55;5.32;;;1.70;;
71435;SDS011;59251;51.326;12.370;2022-08-01T12:03:25;5.63;;;2.00;;
71435;SDS011;59251;51.326;12.370;2022-08-01T12:05:53;5.40;;;1.77;;
71435;SDS011;59251;51.326;12.370;2022-08-01T12:08:28;5.70;;;2.08;;
71435;SDS011;59251;51.326;12.370;2022-08-01T12:10:57;6.00;;;1.85;;
71435;SDS011;59251;51.326;12.370;2022-08-01T12:13:23;4.88;;;1.70;;
71435;SDS011;59251;51.326;12.370;2022-08-01T12:15:48;6.10;;;1.90;;
71435;SDS011;59251;51.326;12.370;2022-08-01T12:18:15;5.45;;;1.80;;
71435;SDS011;59251;51.326;12.370;2022-08-01T12:20:41;5.73;;;1.80;;
71435;SDS011;59251;51.326;12.370;2022-08-01T12:23:09;4.75;;;1.70;;
71435;SDS011;59251;51.326;12.370;2022-08-01T12:25:36;5.10;;;1.45;;
71435;SDS011;59251;51.326;12.370;2022-08-01T12:28:05;5.03;;;1.57;;
71435;SDS011;59251;51.326;12.370;2022-08-01T12:30:32;4.68;;;1.50;;
71435;SDS011;59251;51.326;12.370;2022-08-01T12:33:00;6.95;;;1.40;;
71435;SDS011;59251;51.326;12.370;2022-08-01T12:35:28;4.85;;;1.50;;
71435;SDS011;59251;51.326;12.370;2022-08-01T12:37:55;4.95;;;1.60;;
71435;SDS011;59251;51.326;12.370;2022-08-01T12:42:52;5.20;;;1.50;;
71435;SDS011;59251;51.326;12.370;2022-08-01T12:45:28;4.85;;;1.70;;
71435;SDS011;59251;51.326;12.370;2022-08-01T12:47:58;5.43;;;1.40;;
71435;SDS011;59251;51.326;12.370;2022-08-01T12:50:25;4.40;;;1.30;;
71435;SDS011;59251;51.326;12.370;2022-08-01T12:52:55;4.73;;;1.40;;
71435;SDS011;59251;51.326;12.370;2022-08-01T12:55:25;5.28;;;1.30;;
71435;SDS011;59251;51.326;12.370;2022-08-01T12:58:07;5.53;;;1.30;;
71435;SDS011;59251;51.326;12.370;2022-08-01T13:00:35;4.80;;;1.58;;
71435;SDS011;59251;51.326;12.370;2022-08-01T13:03:03;4.60;;;1.50;;
71435;SDS011;59251;51.326;12.370;2022-08-01T13:05:46;4.40;;;1.50;;
71435;SDS011;59251;51.326;12.370;2022-08-01T13:08:33;4.38;;;1.40;;
71435;SDS011;59251;51.326;12.370;2022-08-01T13:11:00;9.70;;;1.58;;
71435;SDS011;59251;51.326;12.370;2022-08-01T13:13:37;4.20;;;1.30;;
71435;SDS011;59251;51.326;12.370;2022-08-01T13:16:12;5.13;;;1.20;;
71435;SDS011;59251;51.326;12.370;2022-08-01T13:18:38;4.93;;;1.40;;
71435;SDS011;59251;51.326;12.370;2022-08-01T13:26:45;4.45;;;1.33;;
71435;SDS011;59251;51.326;12.370;2022-08-01T13:29:12;4.40;;;1.30;;
71435;SDS011;59251;51.326;12.370;2022-08-01T13:31:45;4.90;;;1.50;;
71435;SDS011;59251;51.326;12.370;2022-08-01T13:34:11;5.15;;;1.77;;
71435;SDS011;59251;51.326;12.370;2022-08-01T13:36:37;5.43;;;1.60;;
71435;SDS011;59251;51.326;12.370;2022-08-01T13:39:03;6.03;;;1.92;;
71435;SDS011;59251;51.326;12.370;2022-08-01T13:41:47;5.97;;;1.70;;
71435;SDS011;59251;51.326;12.370;2022-08-01T13:44:14;5.23;;;1.93;;
71435;SDS011;59251;51.326;12.370;2022-08-01T13:46:40;4.40;;;1.40;;
71435;SDS011;59251;51.326;12.370;2022-08-01T13:49:06;5.18;;;1.20;;
71435;SDS011;59251;51.326;12.370;2022-08-01T13:51:33;5.30;;;1.40;;
71435;SDS011;59251;51.326;12.370;2022-08-01T13:53:59;5.00;;;1.50;;
71435;SDS011;59251;51.326;12.370;2022-08-01T13:56:25;4.10;;;1.30;;
71435;SDS011;59251;51.326;12.370;2022-08-01T13:58:52;5.13;;;1.50;;
71435;SDS011;59251;51.326;12.370;2022-08-01T14:01:18;4.30;;;1.20;;
71435;SDS011;59251;51.326;12.370;2022-08-01T14:03:43;4.40;;;1.20;;
71435;SDS011;59251;51.326;12.370;2022-08-01T14:06:09;4.23;;;1.10;;
71435;SDS011;59251;51.326;12.370;2022-08-01T14:08:35;4.10;;;1.00;;
71435;SDS011;59251;51.326;12.370;2022-08-01T14:11:00;4.33;;;0.90;;
71435;SDS011;59251;51.326;12.370;2022-08-01T14:13:26;5.17;;;1.30;;
71435;SDS011;59251;51.326;12.370;2022-08-01T14:15:51;4.78;;;1.00;;
71435;SDS011;59251;51.326;12.370;2022-08-01T14:18:17;4.73;;;1.10;;
71435;SDS011;59251;51.326;12.370;2022-08-01T14:20:43;4.50;;;1.17;;
71435;SDS011;59251;51.326;12.370;2022-08-01T14:23:08;4.30;;;1.00;;
71435;SDS011;59251;51.326;12.370;2022-08-01T14:25:34;5.15;;;1.30;;
71435;SDS011;59251;51.326;12.370;2022-08-01T14:28:03;6.97;;;1.27;;
71435;SDS011;59251;51.326;12.370;2022-08-01T14:30:28;4.30;;;1.00;;
71435;SDS011;59251;51.326;12.370;2022-08-01T14:32:54;4.10;;;0.80;;
71435;SDS011;59251;51.326;12.370;2022-08-01T14:35:20;5.07;;;1.08;;
71435;SDS011;59251;51.326;12.370;2022-08-01T14:37:45;6.73;;;1.10;;
71435;SDS011;59251;51.326;12.370;2022-08-01T14:40:11;6.73;;;1.67;;
71435;SDS011;59251;51.326;12.370;2022-08-01T14:42:39;4.05;;;1.10;;
71435;SDS011;59251;51.326;12.370;2022-08-01T14:45:05;4.90;;;1.10;;
71435;SDS011;59251;51.326;12.370;2022-08-01T14:47:39;4.68;;;1.20;;
71435;SDS011;59251;51.326;12.370;2022-08-01T14:50:07;4.32;;;1.10;;
71435;SDS011;59251;51.326;12.370;2022-08-01T14:52:35;5.50;;;1.30;;
71435;SDS011;59251;51.326;12.370;2022-08-01T14:55:02;4.50;;;1.30;;
71435;SDS011;59251;51.326;12.370;2022-08-01T14:57:28;4.30;;;1.13;;
71435;SDS011;59251;51.326;12.370;2022-08-01T14:59:55;4.40;;;1.10;;
71435;SDS011;59251;51.326;12.370;2022-08-01T15:02:21;4.30;;;1.30;;
71435;SDS011;59251;51.326;12.370;2022-08-01T15:04:47;5.07;;;1.20;;
71435;SDS011;59251;51.326;12.370;2022-08-01T15:07:13;4.88;;;1.40;;
71435;SDS011;59251;51.326;12.370;2022-08-01T15:09:38;4.55;;;1.58;;
71435;SDS011;59251;51.326;12.370;2022-08-01T15:12:04;5.00;;;1.60;;
71435;SDS011;59251;51.326;12.370;2022-08-01T15:14:30;4.70;;;1.50;;
71435;SDS011;59251;51.326;12.370;2022-08-01T15:17:20;4.78;;;1.45;;
71435;SDS011;59251;51.326;12.370;2022-08-01T15:19:50;5.00;;;1.70;;
71435;SDS011;59251;51.326;12.370;2022-08-01T15:22:17;4.88;;;1.55;;
71435;SDS011;59251;51.326;12.370;2022-08-01T15:24:43;4.90;;;1.92;;
71435;SDS011;59251;51.326;12.370;2022-08-01T15:27:08;4.60;;;1.70;;
71435;SDS011;59251;51.326;12.370;2022-08-01T15:29:35;4.50;;;1.58;;
71435;SDS011;59251;51.326;12.370;2022-08-01T15:32:02;5.25;;;1.80;;